sensor_id;sensor_type;location;lat;lon;timestamp;P1;durP1;ratioP1;P2;durP2;ratioP2
46863;SDS011;32598;50.204;6.408;2023-06-14T00:01:22;9.50;;;6.10;;
46863;SDS011;32598;50.204;6.408;2023-06-14T00:03:48;9.50;;;6.05;;
46863;SDS011;32598;50.204;6.408;2023-06-14T00:06:13;9.07;;;6.13;;
46863;SDS011;32598;50.204;6.408;2023-06-14T00:08:38;11.02;;;5.70;;
46863;SDS011;32598;50.204;6.408;2023-06-14T00:11:05;11.73;;;6.63;;
46863;SDS011;32598;50.204;6.408;2023-06-14T00:13:30;9.88;;;6.32;;
46863;SDS011;32598;50.204;6.408;2023-06-14T00:15:55;9.32;;;6.47;;
46863;SDS011;32598;50.204;6.408;2023-06-14T00:18:21;10.60;;;6.45;;
46863;SDS011;32598;50.204;6.408;2023-06-14T00:20:49;11.65;;;6.68;;
46863;SDS011;32598;50.204;6.408;2023-06-14T00:23:14;10.18;;;6.20;;
46863;SDS011;32598;50.204;6.408;2023-06-14T00:25:39;8.52;;;6.38;;
46863;SDS011;32598;50.204;6.408;2023-06-14T00:28:05;8.37;;;6.07;;
46863;SDS011;32598;50.204;6.408;2023-06-14T00:30:30;10.20;;;6.67;;
46863;SDS011;32598;50.204;6.408;2023-06-14T00:32:55;10.85;;;6.40;;
46863;SDS011;32598;50.204;6.408;2023-06-14T00:35:20;11.75;;;6.95;;
46863;SDS011;32598;50.204;6.408;2023-06-14T00:37:46;8.70;;;5.93;;
46863;SDS011;32598;50.204;6.408;2023-06-14T00:40:11;9.33;;;6.40;;
46863;SDS011;32598;50.204;6.408;2023-06-14T00:42:36;10.52;;;6.00;;
46863;SDS011;32598;50.204;6.408;2023-06-14T00:45:02;11.15;;;6.28;;
46863;SDS011;32598;50.204;6.408;2023-06-14T00:47:27;11.45;;;6.30;;
46863;SDS011;32598;50.204;6.408;2023-06-14T00:49:53;12.38;;;6.53;;
46863;SDS011;32598;50.204;6.408;2023-06-14T00:52:18;10.35;;;6.53;;
46863;SDS011;32598;50.204;6.408;2023-06-14T00:54:43;10.60;;;6.60;;
46863;SDS011;32598;50.204;6.408;2023-06-14T00:57:09;8.77;;;6.18;;
46863;SDS011;32598;50.204;6.408;2023-06-14T00:59:36;9.77;;;6.22;;
46863;SDS011;32598;50.204;6.408;2023-06-14T01:02:03;9.52;;;6.68;;
46863;SDS011;32598;50.204;6.408;2023-06-14T01:04:28;9.77;;;6.07;;
46863;SDS011;32598;50.204;6.408;2023-06-14T01:06:59;10.77;;;6.67;;
46863;SDS011;32598;50.204;6.408;2023-06-14T01:09:40;13.45;;;6.22;;
46863;SDS011;32598;50.204;6.408;2023-06-14T01:12:17;9.73;;;6.75;;
46863;SDS011;32598;50.204;6.408;2023-06-14T01:14:46;9.32;;;6.35;;
46863;SDS011;32598;50.204;6.408;2023-06-14T01:17:12;9.32;;;6.70;;
46863;SDS011;32598;50.204;6.408;2023-06-14T01:19:42;11.88;;;6.90;;
46863;SDS011;32598;50.204;6.408;2023-06-14T01:22:07;11.35;;;6.43;;
46863;SDS011;32598;50.204;6.408;2023-06-14T01:24:32;9.07;;;6.25;;
46863;SDS011;32598;50.204;6.408;2023-06-14T01:26:59;10.32;;;6.93;;
46863;SDS011;32598;50.204;6.408;2023-06-14T01:29:25;9.85;;;6.75;;
46863;SDS011;32598;50.204;6.408;2023-06-14T01:31:53;9.50;;;6.10;;
46863;SDS011;32598;50.204;6.408;2023-06-14T01:34:18;8.80;;;6.55;;
46863;SDS011;32598;50.204;6.408;2023-06-14T01:36:43;10.18;;;6.28;;
46863;SDS011;32598;50.204;6.408;2023-06-14T01:39:10;8.93;;;6.07;;
46863;SDS011;32598;50.204;6.408;2023-06-14T01:41:36;11.13;;;6.85;;
46863;SDS011;32598;50.204;6.408;2023-06-14T01:44:01;9.65;;;6.40;;
46863;SDS011;32598;50.204;6.408;2023-06-14T01:46:27;10.30;;;6.75;;
46863;SDS011;32598;50.204;6.408;2023-06-14T01:48:52;9.48;;;6.88;;
46863;SDS011;32598;50.204;6.408;2023-06-14T01:51:18;12.30;;;6.75;;
46863;SDS011;32598;50.204;6.408;2023-06-14T01:53:43;10.05;;;6.03;;
46863;SDS011;32598;50.204;6.408;2023-06-14T01:56:08;9.60;;;6.75;;
46863;SDS011;32598;50.204;6.408;2023-06-14T01:58:34;10.93;;;7.15;;
46863;SDS011;32598;50.204;6.408;2023-06-14T02:01:00;10.93;;;6.60;;
46863;SDS011;32598;50.204;6.408;2023-06-14T02:03:25;12.63;;;6.30;;
46863;SDS011;32598;50.204;6.408;2023-06-14T02:05:50;11.00;;;7.15;;
46863;SDS011;32598;50.204;6.408;2023-06-14T02:08:16;11.47;;;6.23;;
46863;SDS011;32598;50.204;6.408;2023-06-14T02:10:41;8.43;;;6.05;;
46863;SDS011;32598;50.204;6.408;2023-06-14T02:13:06;12.87;;;7.17;;
46863;SDS011;32598;50.204;6.408;2023-06-14T02:15:31;10.75;;;6.45;;
46863;SDS011;32598;50.204;6.408;2023-06-14T02:17:59;9.57;;;6.60;;
46863;SDS011;32598;50.204;6.408;2023-06-14T02:20:25;11.85;;;6.68;;
46863;SDS011;32598;50.204;6.408;2023-06-14T02:22:50;11.85;;;6.68;;
46863;SDS011;32598;50.204;6.408;2023-06-14T02:25:15;12.43;;;6.70;;
46863;SDS011;32598;50.204;6.408;2023-06-14T02:27:40;9.18;;;6.38;;
46863;SDS011;32598;50.204;6.408;2023-06-14T02:30:06;9.73;;;6.82;;
46863;SDS011;32598;50.204;6.408;2023-06-14T02:32:32;11.38;;;6.70;;
46863;SDS011;32598;50.204;6.408;2023-06-14T02:34:59;11.05;;;7.28;;
46863;SDS011;32598;50.204;6.408;2023-06-14T02:37:24;15.20;;;7.50;;
46863;SDS011;32598;50.204;6.408;2023-06-14T02:39:49;11.80;;;7.30;;
46863;SDS011;32598;50.204;6.408;2023-06-14T02:42:14;11.97;;;6.90;;
46863;SDS011;32598;50.204;6.408;2023-06-14T02:44:39;9.50;;;6.77;;
46863;SDS011;32598;50.204;6.408;2023-06-14T02:47:05;10.82;;;6.97;;
46863;SDS011;32598;50.204;6.408;2023-06-14T02:49:30;10.27;;;6.82;;
46863;SDS011;32598;50.204;6.408;2023-06-14T02:51:55;10.40;;;7.10;;
46863;SDS011;32598;50.204;6.408;2023-06-14T02:54:21;10.33;;;6.80;;
46863;SDS011;32598;50.204;6.408;2023-06-14T02:56:46;11.30;;;6.90;;
46863;SDS011;32598;50.204;6.408;2023-06-14T02:59:11;8.90;;;6.40;;
46863;SDS011;32598;50.204;6.408;2023-06-14T03:01:38;9.43;;;6.43;;
46863;SDS011;32598;50.204;6.408;2023-06-14T03:04:04;11.02;;;7.85;;
46863;SDS011;32598;50.204;6.408;2023-06-14T03:06:29;10.68;;;6.70;;
46863;SDS011;32598;50.204;6.408;2023-06-14T03:08:55;13.57;;;6.93;;
46863;SDS011;32598;50.204;6.408;2023-06-14T03:11:22;12.00;;;7.43;;
46863;SDS011;32598;50.204;6.408;2023-06-14T03:13:47;9.88;;;7.13;;
46863;SDS011;32598;50.204;6.408;2023-06-14T03:16:12;11.50;;;6.53;;
46863;SDS011;32598;50.204;6.408;2023-06-14T03:18:37;10.27;;;7.53;;
46863;SDS011;32598;50.204;6.408;2023-06-14T03:21:03;10.60;;;7.00;;
46863;SDS011;32598;50.204;6.408;2023-06-14T03:23:28;11.18;;;6.95;;
46863;SDS011;32598;50.204;6.408;2023-06-14T03:25:53;10.60;;;7.03;;
46863;SDS011;32598;50.204;6.408;2023-06-14T03:28:19;11.65;;;6.88;;
46863;SDS011;32598;50.204;6.408;2023-06-14T03:30:44;11.55;;;7.00;;
46863;SDS011;32598;50.204;6.408;2023-06-14T03:33:10;10.98;;;6.85;;
46863;SDS011;32598;50.204;6.408;2023-06-14T03:35:35;9.43;;;7.10;;
46863;SDS011;32598;50.204;6.408;2023-06-14T03:38:01;12.50;;;7.43;;
46863;SDS011;32598;50.204;6.408;2023-06-14T03:40:27;12.77;;;7.60;;
46863;SDS011;32598;50.204;6.408;2023-06-14T03:42:53;13.07;;;7.15;;
46863;SDS011;32598;50.204;6.408;2023-06-14T03:45:18;11.85;;;7.25;;
46863;SDS011;32598;50.204;6.408;2023-06-14T03:47:43;9.45;;;6.53;;
46863;SDS011;32598;50.204;6.408;2023-06-14T03:50:09;10.77;;;7.03;;
46863;SDS011;32598;50.204;6.408;2023-06-14T03:52:34;11.07;;;7.10;;
46863;SDS011;32598;50.204;6.408;2023-06-14T03:54:59;11.90;;;7.03;;
46863;SDS011;32598;50.204;6.408;2023-06-14T03:57:25;11.13;;;7.15;;
46863;SDS011;32598;50.204;6.408;2023-06-14T03:59:50;11.88;;;7.25;;
46863;SDS011;32598;50.204;6.408;2023-06-14T04:02:15;11.35;;;7.15;;
46863;SDS011;32598;50.204;6.408;2023-06-14T04:04:43;11.88;;;7.53;;
46863;SDS011;32598;50.204;6.408;2023-06-14T04:07:13;11.07;;;7.47;;
46863;SDS011;32598;50.204;6.408;2023-06-14T04:09:39;12.43;;;7.25;;
46863;SDS011;32598;50.204;6.408;2023-06-14T04:12:05;10.27;;;6.85;;
46863;SDS011;32598;50.204;6.408;2023-06-14T04:14:30;12.90;;;7.40;;
46863;SDS011;32598;50.204;6.408;2023-06-14T04:16:58;12.10;;;7.28;;
46863;SDS011;32598;50.204;6.408;2023-06-14T04:19:23;11.43;;;6.87;;
46863;SDS011;32598;50.204;6.408;2023-06-14T04:21:49;12.77;;;7.35;;
46863;SDS011;32598;50.204;6.408;2023-06-14T04:24:14;13.15;;;7.75;;
46863;SDS011;32598;50.204;6.408;2023-06-14T04:26:39;9.15;;;6.47;;
46863;SDS011;32598;50.204;6.408;2023-06-14T04:29:05;12.73;;;7.53;;
46863;SDS011;32598;50.204;6.408;2023-06-14T04:31:31;11.35;;;7.07;;
46863;SDS011;32598;50.204;6.408;2023-06-14T04:34:02;11.48;;;7.10;;
46863;SDS011;32598;50.204;6.408;2023-06-14T04:36:30;10.18;;;6.85;;
46863;SDS011;32598;50.204;6.408;2023-06-14T04:38:57;9.98;;;6.80;;
46863;SDS011;32598;50.204;6.408;2023-06-14T04:41:23;10.65;;;6.68;;
46863;SDS011;32598;50.204;6.408;2023-06-14T04:43:56;10.73;;;6.45;;
46863;SDS011;32598;50.204;6.408;2023-06-14T04:46:22;9.15;;;6.18;;
46863;SDS011;32598;50.204;6.408;2023-06-14T04:48:47;9.90;;;6.28;;
46863;SDS011;32598;50.204;6.408;2023-06-14T04:51:12;9.63;;;6.60;;
46863;SDS011;32598;50.204;6.408;2023-06-14T04:53:38;8.93;;;6.40;;
46863;SDS011;32598;50.204;6.408;2023-06-14T04:56:03;10.73;;;6.38;;
46863;SDS011;32598;50.204;6.408;2023-06-14T04:58:29;8.82;;;6.13;;
46863;SDS011;32598;50.204;6.408;2023-06-14T05:00:54;10.50;;;6.53;;
46863;SDS011;32598;50.204;6.408;2023-06-14T05:03:21;13.63;;;6.60;;
46863;SDS011;32598;50.204;6.408;2023-06-14T05:05:46;10.05;;;6.45;;
46863;SDS011;32598;50.204;6.408;2023-06-14T05:08:11;8.32;;;5.88;;
46863;SDS011;32598;50.204;6.408;2023-06-14T05:10:36;11.00;;;6.43;;
46863;SDS011;32598;50.204;6.408;2023-06-14T05:13:02;8.57;;;5.90;;
46863;SDS011;32598;50.204;6.408;2023-06-14T05:15:27;13.88;;;6.10;;
46863;SDS011;32598;50.204;6.408;2023-06-14T05:17:53;11.30;;;6.32;;
46863;SDS011;32598;50.204;6.408;2023-06-14T05:20:21;11.13;;;5.80;;
46863;SDS011;32598;50.204;6.408;2023-06-14T05:22:47;10.32;;;5.95;;
46863;SDS011;32598;50.204;6.408;2023-06-14T05:25:15;8.73;;;5.85;;
46863;SDS011;32598;50.204;6.408;2023-06-14T05:27:40;11.10;;;6.90;;
46863;SDS011;32598;50.204;6.408;2023-06-14T05:30:06;10.48;;;5.95;;
46863;SDS011;32598;50.204;6.408;2023-06-14T05:32:32;9.75;;;5.57;;
46863;SDS011;32598;50.204;6.408;2023-06-14T05:34:57;10.52;;;6.18;;
46863;SDS011;32598;50.204;6.408;2023-06-14T05:37:22;9.90;;;5.60;;
46863;SDS011;32598;50.204;6.408;2023-06-14T05:39:47;9.80;;;5.70;;
46863;SDS011;32598;50.204;6.408;2023-06-14T05:42:13;12.43;;;5.70;;
46863;SDS011;32598;50.204;6.408;2023-06-14T05:44:38;11.65;;;5.95;;
46863;SDS011;32598;50.204;6.408;2023-06-14T05:47:03;10.37;;;5.50;;
46863;SDS011;32598;50.204;6.408;2023-06-14T05:49:28;12.95;;;5.32;;
46863;SDS011;32598;50.204;6.408;2023-06-14T05:51:54;9.80;;;5.75;;
46863;SDS011;32598;50.204;6.408;2023-06-14T05:54:19;8.37;;;5.13;;
46863;SDS011;32598;50.204;6.408;2023-06-14T05:56:44;11.02;;;5.80;;
46863;SDS011;32598;50.204;6.408;2023-06-14T05:59:09;11.60;;;5.83;;
46863;SDS011;32598;50.204;6.408;2023-06-14T06:01:34;9.30;;;5.90;;
46863;SDS011;32598;50.204;6.408;2023-06-14T06:04:01;15.05;;;6.13;;
46863;SDS011;32598;50.204;6.408;2023-06-14T06:06:26;10.80;;;5.53;;
46863;SDS011;32598;50.204;6.408;2023-06-14T06:08:51;10.80;;;5.45;;
46863;SDS011;32598;50.204;6.408;2023-06-14T06:11:17;7.90;;;4.80;;
46863;SDS011;32598;50.204;6.408;2023-06-14T06:13:42;11.52;;;5.05;;
46863;SDS011;32598;50.204;6.408;2023-06-14T06:16:07;7.80;;;5.17;;
46863;SDS011;32598;50.204;6.408;2023-06-14T06:18:32;10.43;;;4.87;;
46863;SDS011;32598;50.204;6.408;2023-06-14T06:20:57;11.57;;;5.35;;
46863;SDS011;32598;50.204;6.408;2023-06-14T06:23:23;10.77;;;5.00;;
46863;SDS011;32598;50.204;6.408;2023-06-14T06:25:48;13.88;;;4.82;;
46863;SDS011;32598;50.204;6.408;2023-06-14T06:28:13;9.60;;;5.00;;
46863;SDS011;32598;50.204;6.408;2023-06-14T06:30:38;9.30;;;4.88;;
46863;SDS011;32598;50.204;6.408;2023-06-14T06:33:04;9.67;;;4.83;;
46863;SDS011;32598;50.204;6.408;2023-06-14T06:35:29;10.43;;;4.82;;
46863;SDS011;32598;50.204;6.408;2023-06-14T06:37:55;8.65;;;5.43;;
46863;SDS011;32598;50.204;6.408;2023-06-14T06:40:21;11.13;;;4.82;;
46863;SDS011;32598;50.204;6.408;2023-06-14T06:42:46;8.63;;;4.60;;
46863;SDS011;32598;50.204;6.408;2023-06-14T06:45:11;13.67;;;5.10;;
46863;SDS011;32598;50.204;6.408;2023-06-14T06:47:36;9.33;;;4.97;;
46863;SDS011;32598;50.204;6.408;2023-06-14T06:50:01;11.97;;;4.87;;
46863;SDS011;32598;50.204;6.408;2023-06-14T06:52:27;8.60;;;4.85;;
46863;SDS011;32598;50.204;6.408;2023-06-14T06:54:52;11.07;;;5.07;;
46863;SDS011;32598;50.204;6.408;2023-06-14T06:57:20;9.60;;;4.65;;
46863;SDS011;32598;50.204;6.408;2023-06-14T06:59:45;8.85;;;4.90;;
46863;SDS011;32598;50.204;6.408;2023-06-14T07:02:10;15.27;;;5.63;;
46863;SDS011;32598;50.204;6.408;2023-06-14T07:04:35;10.27;;;5.10;;
46863;SDS011;32598;50.204;6.408;2023-06-14T07:07:00;10.98;;;4.60;;
46863;SDS011;32598;50.204;6.408;2023-06-14T07:09:26;10.73;;;4.82;;
46863;SDS011;32598;50.204;6.408;2023-06-14T07:11:51;10.97;;;4.70;;
46863;SDS011;32598;50.204;6.408;2023-06-14T07:14:17;13.90;;;4.82;;
46863;SDS011;32598;50.204;6.408;2023-06-14T07:16:42;9.20;;;4.77;;
46863;SDS011;32598;50.204;6.408;2023-06-14T07:19:08;14.43;;;5.32;;
46863;SDS011;32598;50.204;6.408;2023-06-14T07:21:34;10.30;;;5.18;;
46863;SDS011;32598;50.204;6.408;2023-06-14T07:23:59;9.20;;;4.93;;
46863;SDS011;32598;50.204;6.408;2023-06-14T07:26:24;10.30;;;5.53;;
46863;SDS011;32598;50.204;6.408;2023-06-14T07:28:50;14.77;;;5.35;;
46863;SDS011;32598;50.204;6.408;2023-06-14T07:31:15;11.50;;;5.07;;
46863;SDS011;32598;50.204;6.408;2023-06-14T07:33:41;11.07;;;5.07;;
46863;SDS011;32598;50.204;6.408;2023-06-14T07:36:07;8.50;;;4.60;;
46863;SDS011;32598;50.204;6.408;2023-06-14T07:38:32;8.98;;;5.40;;
46863;SDS011;32598;50.204;6.408;2023-06-14T07:40:57;11.27;;;4.90;;
46863;SDS011;32598;50.204;6.408;2023-06-14T07:43:23;8.88;;;4.60;;
46863;SDS011;32598;50.204;6.408;2023-06-14T07:45:48;10.52;;;5.15;;
46863;SDS011;32598;50.204;6.408;2023-06-14T07:48:13;14.40;;;5.27;;
46863;SDS011;32598;50.204;6.408;2023-06-14T07:50:38;10.23;;;5.13;;
46863;SDS011;32598;50.204;6.408;2023-06-14T07:53:03;11.37;;;5.30;;
46863;SDS011;32598;50.204;6.408;2023-06-14T07:55:28;12.13;;;5.67;;
46863;SDS011;32598;50.204;6.408;2023-06-14T07:57:54;11.97;;;4.77;;
46863;SDS011;32598;50.204;6.408;2023-06-14T08:00:19;11.90;;;5.25;;
46863;SDS011;32598;50.204;6.408;2023-06-14T08:02:45;9.65;;;4.95;;
46863;SDS011;32598;50.204;6.408;2023-06-14T08:05:11;12.98;;;5.45;;
46863;SDS011;32598;50.204;6.408;2023-06-14T08:07:36;10.65;;;5.47;;
46863;SDS011;32598;50.204;6.408;2023-06-14T08:10:01;12.15;;;5.38;;
46863;SDS011;32598;50.204;6.408;2023-06-14T08:12:26;11.20;;;5.27;;
46863;SDS011;32598;50.204;6.408;2023-06-14T08:14:51;17.00;;;5.50;;
46863;SDS011;32598;50.204;6.408;2023-06-14T08:17:17;10.43;;;5.17;;
46863;SDS011;32598;50.204;6.408;2023-06-14T08:19:42;10.97;;;5.30;;
46863;SDS011;32598;50.204;6.408;2023-06-14T08:22:07;13.77;;;5.47;;
46863;SDS011;32598;50.204;6.408;2023-06-14T08:24:32;12.70;;;5.53;;
46863;SDS011;32598;50.204;6.408;2023-06-14T08:26:58;11.55;;;5.60;;
46863;SDS011;32598;50.204;6.408;2023-06-14T08:29:27;13.73;;;4.90;;
46863;SDS011;32598;50.204;6.408;2023-06-14T08:31:54;12.80;;;5.00;;
46863;SDS011;32598;50.204;6.408;2023-06-14T08:34:20;12.45;;;5.30;;
46863;SDS011;32598;50.204;6.408;2023-06-14T08:36:45;9.90;;;4.80;;
46863;SDS011;32598;50.204;6.408;2023-06-14T08:39:10;11.40;;;5.20;;
46863;SDS011;32598;50.204;6.408;2023-06-14T08:41:35;12.57;;;4.97;;
46863;SDS011;32598;50.204;6.408;2023-06-14T08:44:01;9.23;;;4.70;;
46863;SDS011;32598;50.204;6.408;2023-06-14T08:46:26;11.37;;;4.93;;
46863;SDS011;32598;50.204;6.408;2023-06-14T08:48:52;12.13;;;5.13;;
46863;SDS011;32598;50.204;6.408;2023-06-14T08:51:20;10.32;;;4.72;;
46863;SDS011;32598;50.204;6.408;2023-06-14T08:53:52;15.30;;;5.32;;
46863;SDS011;32598;50.204;6.408;2023-06-14T08:56:18;12.07;;;4.60;;
46863;SDS011;32598;50.204;6.408;2023-06-14T08:58:44;14.30;;;4.72;;
46863;SDS011;32598;50.204;6.408;2023-06-14T09:01:10;11.82;;;4.20;;
46863;SDS011;32598;50.204;6.408;2023-06-14T09:03:39;10.95;;;4.30;;
46863;SDS011;32598;50.204;6.408;2023-06-14T09:06:05;8.75;;;4.30;;
46863;SDS011;32598;50.204;6.408;2023-06-14T09:08:30;13.23;;;4.67;;
46863;SDS011;32598;50.204;6.408;2023-06-14T09:10:56;10.85;;;4.57;;
46863;SDS011;32598;50.204;6.408;2023-06-14T09:13:21;7.95;;;3.83;;
46863;SDS011;32598;50.204;6.408;2023-06-14T09:15:46;11.93;;;3.88;;
46863;SDS011;32598;50.204;6.408;2023-06-14T09:18:12;15.73;;;4.40;;
46863;SDS011;32598;50.204;6.408;2023-06-14T09:20:37;9.47;;;3.93;;
46863;SDS011;32598;50.204;6.408;2023-06-14T09:23:02;10.10;;;4.20;;
46863;SDS011;32598;50.204;6.408;2023-06-14T09:25:27;14.83;;;4.90;;
46863;SDS011;32598;50.204;6.408;2023-06-14T09:27:52;9.43;;;4.07;;
46863;SDS011;32598;50.204;6.408;2023-06-14T09:30:19;12.43;;;4.22;;
46863;SDS011;32598;50.204;6.408;2023-06-14T09:32:45;10.52;;;3.70;;
46863;SDS011;32598;50.204;6.408;2023-06-14T09:35:10;8.60;;;4.03;;
46863;SDS011;32598;50.204;6.408;2023-06-14T09:37:35;9.30;;;4.10;;
46863;SDS011;32598;50.204;6.408;2023-06-14T09:40:03;7.35;;;4.13;;
46863;SDS011;32598;50.204;6.408;2023-06-14T09:42:28;9.85;;;4.10;;
46863;SDS011;32598;50.204;6.408;2023-06-14T09:44:55;8.70;;;4.30;;
46863;SDS011;32598;50.204;6.408;2023-06-14T09:47:20;9.32;;;4.47;;
46863;SDS011;32598;50.204;6.408;2023-06-14T09:49:47;16.15;;;4.68;;
46863;SDS011;32598;50.204;6.408;2023-06-14T09:52:16;9.25;;;3.90;;
46863;SDS011;32598;50.204;6.408;2023-06-14T09:54:42;7.88;;;3.90;;
46863;SDS011;32598;50.204;6.408;2023-06-14T09:57:20;10.05;;;4.47;;
46863;SDS011;32598;50.204;6.408;2023-06-14T09:59:46;8.40;;;4.05;;
46863;SDS011;32598;50.204;6.408;2023-06-14T10:04:39;8.80;;;4.00;;
46863;SDS011;32598;50.204;6.408;2023-06-14T10:07:05;13.93;;;4.30;;
46863;SDS011;32598;50.204;6.408;2023-06-14T10:09:31;11.00;;;4.07;;
46863;SDS011;32598;50.204;6.408;2023-06-14T10:11:57;9.43;;;4.05;;
46863;SDS011;32598;50.204;6.408;2023-06-14T10:14:22;6.53;;;4.10;;
46863;SDS011;32598;50.204;6.408;2023-06-14T10:17:00;8.57;;;3.83;;
46863;SDS011;32598;50.204;6.408;2023-06-14T10:24:20;9.43;;;3.90;;
46863;SDS011;32598;50.204;6.408;2023-06-14T10:26:51;7.38;;;3.60;;
46863;SDS011;32598;50.204;6.408;2023-06-14T10:29:17;10.38;;;4.47;;
46863;SDS011;32598;50.204;6.408;2023-06-14T10:31:46;15.20;;;4.70;;
46863;SDS011;32598;50.204;6.408;2023-06-14T10:34:12;12.05;;;3.85;;
46863;SDS011;32598;50.204;6.408;2023-06-14T10:36:38;7.63;;;4.05;;
46863;SDS011;32598;50.204;6.408;2023-06-14T10:39:17;10.48;;;3.63;;
46863;SDS011;32598;50.204;6.408;2023-06-14T10:41:50;12.32;;;4.25;;
46863;SDS011;32598;50.204;6.408;2023-06-14T10:46:52;8.93;;;3.90;;
46863;SDS011;32598;50.204;6.408;2023-06-14T10:49:23;9.38;;;3.13;;
46863;SDS011;32598;50.204;6.408;2023-06-14T10:52:02;15.63;;;4.38;;
46863;SDS011;32598;50.204;6.408;2023-06-14T10:54:27;7.70;;;3.58;;
46863;SDS011;32598;50.204;6.408;2023-06-14T10:56:53;7.17;;;3.50;;
46863;SDS011;32598;50.204;6.408;2023-06-14T10:59:20;9.77;;;3.25;;
46863;SDS011;32598;50.204;6.408;2023-06-14T11:04:23;10.60;;;3.90;;
46863;SDS011;32598;50.204;6.408;2023-06-14T11:07:01;7.00;;;3.80;;
46863;SDS011;32598;50.204;6.408;2023-06-14T11:12:25;7.97;;;3.25;;
46863;SDS011;32598;50.204;6.408;2023-06-14T11:14:52;7.32;;;3.50;;
46863;SDS011;32598;50.204;6.408;2023-06-14T11:17:17;7.27;;;2.90;;
46863;SDS011;32598;50.204;6.408;2023-06-14T11:19:42;10.37;;;3.50;;
46863;SDS011;32598;50.204;6.408;2023-06-14T11:22:08;8.30;;;3.33;;
46863;SDS011;32598;50.204;6.408;2023-06-14T11:24:34;6.20;;;2.97;;
46863;SDS011;32598;50.204;6.408;2023-06-14T11:27:00;6.97;;;3.17;;
46863;SDS011;32598;50.204;6.408;2023-06-14T11:29:25;7.15;;;3.13;;
46863;SDS011;32598;50.204;6.408;2023-06-14T11:31:50;8.33;;;3.23;;
46863;SDS011;32598;50.204;6.408;2023-06-14T11:34:16;8.63;;;3.57;;
46863;SDS011;32598;50.204;6.408;2023-06-14T11:36:42;14.38;;;3.40;;
46863;SDS011;32598;50.204;6.408;2023-06-14T11:39:07;7.63;;;2.78;;
46863;SDS011;32598;50.204;6.408;2023-06-14T11:41:37;10.13;;;3.13;;
46863;SDS011;32598;50.204;6.408;2023-06-14T11:44:02;6.10;;;2.65;;
46863;SDS011;32598;50.204;6.408;2023-06-14T11:46:28;7.43;;;2.92;;
46863;SDS011;32598;50.204;6.408;2023-06-14T11:48:53;8.17;;;2.70;;
46863;SDS011;32598;50.204;6.408;2023-06-14T11:51:18;7.40;;;3.30;;
46863;SDS011;32598;50.204;6.408;2023-06-14T11:53:44;7.20;;;2.83;;
46863;SDS011;32598;50.204;6.408;2023-06-14T11:56:09;6.15;;;2.88;;
46863;SDS011;32598;50.204;6.408;2023-06-14T11:58:34;7.72;;;2.70;;
46863;SDS011;32598;50.204;6.408;2023-06-14T12:01:00;7.80;;;2.70;;
46863;SDS011;32598;50.204;6.408;2023-06-14T12:03:25;7.68;;;3.10;;
46863;SDS011;32598;50.204;6.408;2023-06-14T12:08:47;8.82;;;2.95;;
46863;SDS011;32598;50.204;6.408;2023-06-14T12:11:14;8.30;;;2.83;;
46863;SDS011;32598;50.204;6.408;2023-06-14T12:13:40;6.75;;;2.85;;
46863;SDS011;32598;50.204;6.408;2023-06-14T12:16:12;9.32;;;3.00;;
46863;SDS011;32598;50.204;6.408;2023-06-14T12:18:38;5.82;;;2.42;;
46863;SDS011;32598;50.204;6.408;2023-06-14T12:21:04;9.77;;;3.00;;
46863;SDS011;32598;50.204;6.408;2023-06-14T12:26:09;7.10;;;2.35;;
46863;SDS011;32598;50.204;6.408;2023-06-14T12:28:34;8.00;;;2.78;;
46863;SDS011;32598;50.204;6.408;2023-06-14T12:30:59;8.88;;;2.78;;
46863;SDS011;32598;50.204;6.408;2023-06-14T12:33:24;28.30;;;4.00;;
46863;SDS011;32598;50.204;6.408;2023-06-14T12:35:50;5.65;;;2.53;;
46863;SDS011;32598;50.204;6.408;2023-06-14T12:38:16;6.90;;;3.00;;
46863;SDS011;32598;50.204;6.408;2023-06-14T12:40:41;6.50;;;2.50;;
46863;SDS011;32598;50.204;6.408;2023-06-14T12:43:07;7.75;;;2.45;;
46863;SDS011;32598;50.204;6.408;2023-06-14T12:45:32;5.30;;;2.47;;
46863;SDS011;32598;50.204;6.408;2023-06-14T12:47:57;5.05;;;2.50;;
46863;SDS011;32598;50.204;6.408;2023-06-14T12:50:22;7.90;;;2.75;;
46863;SDS011;32598;50.204;6.408;2023-06-14T12:52:47;6.20;;;2.27;;
46863;SDS011;32598;50.204;6.408;2023-06-14T12:55:13;9.60;;;2.27;;
46863;SDS011;32598;50.204;6.408;2023-06-14T12:57:39;5.80;;;2.53;;
46863;SDS011;32598;50.204;6.408;2023-06-14T13:00:04;6.90;;;3.20;;
46863;SDS011;32598;50.204;6.408;2023-06-14T13:02:32;6.85;;;2.58;;
46863;SDS011;32598;50.204;6.408;2023-06-14T13:04:57;7.70;;;2.33;;
46863;SDS011;32598;50.204;6.408;2023-06-14T13:07:23;5.60;;;2.45;;
46863;SDS011;32598;50.204;6.408;2023-06-14T13:09:49;5.97;;;2.30;;
46863;SDS011;32598;50.204;6.408;2023-06-14T13:12:14;6.93;;;2.00;;
46863;SDS011;32598;50.204;6.408;2023-06-14T13:14:40;6.47;;;2.33;;
46863;SDS011;32598;50.204;6.408;2023-06-14T13:17:08;5.88;;;2.50;;
46863;SDS011;32598;50.204;6.408;2023-06-14T13:19:33;8.73;;;2.70;;
46863;SDS011;32598;50.204;6.408;2023-06-14T13:21:59;11.50;;;2.80;;
46863;SDS011;32598;50.204;6.408;2023-06-14T13:24:24;5.67;;;2.40;;
46863;SDS011;32598;50.204;6.408;2023-06-14T13:26:49;4.60;;;2.22;;
46863;SDS011;32598;50.204;6.408;2023-06-14T13:29:14;7.05;;;2.38;;
46863;SDS011;32598;50.204;6.408;2023-06-14T13:31:39;4.80;;;2.50;;
46863;SDS011;32598;50.204;6.408;2023-06-14T13:34:05;6.97;;;2.33;;
46863;SDS011;32598;50.204;6.408;2023-06-14T13:36:30;5.60;;;2.28;;
46863;SDS011;32598;50.204;6.408;2023-06-14T13:38:56;6.07;;;2.10;;
46863;SDS011;32598;50.204;6.408;2023-06-14T13:41:21;6.55;;;2.30;;
46863;SDS011;32598;50.204;6.408;2023-06-14T13:43:46;6.37;;;2.33;;
46863;SDS011;32598;50.204;6.408;2023-06-14T13:46:11;5.33;;;2.47;;
46863;SDS011;32598;50.204;6.408;2023-06-14T13:48:36;4.57;;;2.20;;
46863;SDS011;32598;50.204;6.408;2023-06-14T13:51:01;5.60;;;2.30;;
46863;SDS011;32598;50.204;6.408;2023-06-14T13:53:29;6.80;;;2.28;;
46863;SDS011;32598;50.204;6.408;2023-06-14T13:55:54;9.97;;;2.97;;
46863;SDS011;32598;50.204;6.408;2023-06-14T13:58:19;5.50;;;2.17;;
46863;SDS011;32598;50.204;6.408;2023-06-14T14:00:44;4.90;;;2.10;;
46863;SDS011;32598;50.204;6.408;2023-06-14T14:03:09;7.35;;;2.22;;
46863;SDS011;32598;50.204;6.408;2023-06-14T14:05:35;6.03;;;2.42;;
46863;SDS011;32598;50.204;6.408;2023-06-14T14:08:00;5.10;;;2.20;;
46863;SDS011;32598;50.204;6.408;2023-06-14T14:10:25;5.15;;;2.10;;
46863;SDS011;32598;50.204;6.408;2023-06-14T14:12:51;4.70;;;2.20;;
46863;SDS011;32598;50.204;6.408;2023-06-14T14:15:16;7.18;;;2.63;;
46863;SDS011;32598;50.204;6.408;2023-06-14T14:17:41;5.18;;;2.22;;
46863;SDS011;32598;50.204;6.408;2023-06-14T14:20:06;5.17;;;2.13;;
46863;SDS011;32598;50.204;6.408;2023-06-14T14:22:32;6.13;;;2.20;;
46863;SDS011;32598;50.204;6.408;2023-06-14T14:24:57;5.10;;;2.30;;
46863;SDS011;32598;50.204;6.408;2023-06-14T14:27:22;5.50;;;2.33;;
46863;SDS011;32598;50.204;6.408;2023-06-14T14:29:47;6.90;;;2.30;;
46863;SDS011;32598;50.204;6.408;2023-06-14T14:32:12;8.40;;;2.50;;
46863;SDS011;32598;50.204;6.408;2023-06-14T14:34:39;4.25;;;1.98;;
46863;SDS011;32598;50.204;6.408;2023-06-14T14:37:04;5.60;;;1.90;;
46863;SDS011;32598;50.204;6.408;2023-06-14T14:39:29;8.38;;;2.20;;
46863;SDS011;32598;50.204;6.408;2023-06-14T14:41:55;4.32;;;1.90;;
46863;SDS011;32598;50.204;6.408;2023-06-14T14:44:21;5.13;;;2.50;;
46863;SDS011;32598;50.204;6.408;2023-06-14T14:46:46;6.93;;;2.00;;
46863;SDS011;32598;50.204;6.408;2023-06-14T14:49:11;5.18;;;2.03;;
46863;SDS011;32598;50.204;6.408;2023-06-14T14:51:36;6.83;;;2.10;;
46863;SDS011;32598;50.204;6.408;2023-06-14T14:54:03;6.78;;;2.28;;